createdAt,value
2023-03-05T00:01:28.710Z,64.45
2023-03-05T00:03:59.079Z,64.36
2023-03-05T00:06:28.871Z,64.53
2023-03-05T00:08:58.542Z,64.37
2023-03-05T00:11:30.158Z,64.51
2023-03-05T00:13:58.916Z,64.54
2023-03-05T00:16:28.257Z,64.64
2023-03-05T00:18:57.789Z,64.61
2023-03-05T00:21:27.345Z,64.46
2023-03-05T00:23:55.884Z,64.62
2023-03-05T00:26:25.514Z,64.84
2023-03-05T00:28:54.830Z,64.66
2023-03-05T00:31:31.551Z,64.70
2023-03-05T00:34:02.217Z,65.36
2023-03-05T00:36:30.606Z,65.11
2023-03-05T00:38:59.083Z,65.18
2023-03-05T00:41:28.121Z,65.28
2023-03-05T00:43:56.112Z,65.34
2023-03-05T00:46:24.575Z,65.59
2023-03-05T00:48:52.435Z,65.59
2023-03-05T00:51:20.702Z,66.03
2023-03-05T00:53:48.290Z,66.56
2023-03-05T00:56:16.057Z,66.58
2023-03-05T00:58:43.549Z,66.48
2023-03-05T01:01:11.317Z,66.48
2023-03-05T01:03:39.294Z,66.34
2023-03-05T01:06:10.032Z,66.27
2023-03-05T01:08:38.009Z,66.04
2023-03-05T01:11:07.186Z,65.92
2023-03-05T01:13:35.236Z,66.06
2023-03-05T01:16:03.718Z,65.73
2023-03-05T01:18:31.729Z,65.63
2023-03-05T01:20:59.545Z,65.66
2023-03-05T01:23:27.142Z,65.53
2023-03-05T01:25:59.509Z,65.50
2023-03-05T01:28:28.029Z,65.42
2023-03-05T01:30:55.900Z,65.23
2023-03-05T01:33:23.585Z,65.06
2023-03-05T01:35:51.252Z,64.95
2023-03-05T01:38:19.323Z,64.79
2023-03-05T01:40:47.076Z,64.75
2023-03-05T01:43:14.523Z,64.69
2023-03-05T01:46:16.915Z,64.94
2023-03-05T01:48:49.937Z,64.98
2023-03-05T01:51:20.262Z,65.44
2023-03-05T01:53:48.065Z,65.44
2023-03-05T01:56:16.866Z,65.58
2023-03-05T01:58:45.557Z,65.60
2023-03-05T02:01:13.190Z,65.49
2023-03-05T02:03:42.469Z,65.56
2023-03-05T02:06:10.260Z,65.44
2023-03-05T02:08:37.790Z,65.37
2023-03-05T02:11:06.093Z,65.35
2023-03-05T02:13:38.670Z,65.31
2023-03-05T02:16:07.809Z,65.16
2023-03-05T02:18:35.461Z,65.17
2023-03-05T02:21:04.376Z,64.92
2023-03-05T02:23:36.484Z,64.73
2023-03-05T02:26:06.936Z,64.58
2023-03-05T02:28:46.513Z,64.39
2023-03-05T02:31:18.434Z,64.64
2023-03-05T02:33:47.075Z,64.47
2023-03-05T02:36:14.862Z,64.84
2023-03-05T02:38:43.796Z,64.43
2023-03-05T02:41:12.649Z,64.50
2023-03-05T02:43:40.341Z,64.16
2023-03-05T02:46:09.003Z,64.04
2023-03-05T02:48:36.903Z,64.03
2023-03-05T02:51:06.253Z,63.85
2023-03-05T02:53:33.742Z,64.14
2023-03-05T02:56:01.609Z,64.08
2023-03-05T02:58:29.480Z,64.21
2023-03-05T03:00:57.099Z,64.08
2023-03-05T03:03:25.147Z,64.20
2023-03-05T03:05:52.730Z,64.16
2023-03-05T03:08:20.275Z,64.26
2023-03-05T03:10:48.108Z,64.44
2023-03-05T03:13:15.626Z,64.61
2023-03-05T03:15:43.114Z,64.94
2023-03-05T03:18:10.978Z,65.28
2023-03-05T03:20:39.617Z,66.03
2023-03-05T03:23:07.483Z,66.74
2023-03-05T03:25:35.281Z,67.20
2023-03-05T03:28:03.024Z,67.53
2023-03-05T03:30:30.512Z,67.64
2023-03-05T03:32:58.251Z,68.08
2023-03-05T03:35:25.785Z,68.04
2023-03-05T03:37:53.370Z,68.27
2023-03-05T03:40:22.286Z,68.26
2023-03-05T03:42:54.854Z,68.23
2023-03-05T03:45:22.924Z,67.93
2023-03-05T03:47:51.679Z,68.07
2023-03-05T03:50:19.242Z,67.51
2023-03-05T03:52:47.423Z,67.78
2023-03-05T03:55:14.897Z,67.08
2023-03-05T03:57:43.580Z,66.94
2023-03-05T04:00:11.893Z,67.51
2023-03-05T04:02:39.451Z,66.95
2023-03-05T04:05:07.900Z,67.16
2023-03-05T04:07:35.467Z,67.48
2023-03-05T04:10:03.362Z,67.73
2023-03-05T04:12:31.987Z,67.28
2023-03-05T04:14:59.610Z,67.54
2023-03-05T04:17:27.071Z,67.60
2023-03-05T04:19:54.886Z,68.51
2023-03-05T04:22:22.442Z,68.01
2023-03-05T04:24:50.041Z,68.13
2023-03-05T04:27:17.829Z,67.91
2023-03-05T04:29:45.533Z,68.75
2023-03-05T04:32:13.063Z,68.31
2023-03-05T04:34:40.925Z,68.23
2023-03-05T04:37:08.455Z,68.38
2023-03-05T04:39:35.978Z,68.48
2023-03-05T04:42:04.133Z,68.47
2023-03-05T04:44:31.720Z,68.77
2023-03-05T04:46:59.185Z,68.66
2023-03-05T04:49:27.018Z,68.96
2023-03-05T04:51:54.574Z,69.05
2023-03-05T04:54:22.426Z,69.24
2023-03-05T04:56:50.477Z,69.55
2023-03-05T04:59:17.945Z,69.82
2023-03-05T05:01:45.488Z,70.15
2023-03-05T05:04:13.528Z,69.81
2023-03-05T05:06:40.961Z,69.65
2023-03-05T05:09:08.504Z,69.67
2023-03-05T05:11:36.324Z,69.65
2023-03-05T05:14:04.350Z,68.92
2023-03-05T05:16:32.021Z,68.81
2023-03-05T05:18:59.891Z,68.47
2023-03-05T05:21:27.463Z,68.60
2023-03-05T05:23:54.973Z,69.94
2023-03-05T05:26:22.833Z,70.17
2023-03-05T05:28:50.366Z,70.34
2023-03-05T05:31:18.300Z,70.39
2023-03-05T05:33:48.763Z,70.86
2023-03-05T05:36:19.339Z,70.39
2023-03-05T05:38:47.657Z,70.87
2023-03-05T05:41:17.925Z,70.68
2023-03-05T05:43:45.829Z,70.77
2023-03-05T05:46:17.054Z,70.59
2023-03-05T05:48:45.742Z,70.48
2023-03-05T05:51:16.416Z,70.57
2023-03-05T05:53:44.890Z,70.41
2023-03-05T05:56:13.564Z,70.35
2023-03-05T05:58:41.597Z,70.69
2023-03-05T06:01:26.487Z,70.31
2023-03-05T06:03:55.781Z,69.54
2023-03-05T06:06:24.896Z,69.79
2023-03-05T06:08:52.994Z,69.83
2023-03-05T06:11:22.009Z,70.13
2023-03-05T06:13:49.996Z,69.64
2023-03-05T06:16:20.767Z,69.31
2023-03-05T06:18:48.638Z,69.16
2023-03-05T06:21:17.692Z,68.73
2023-03-05T06:23:46.320Z,69.35
2023-03-05T06:26:17.368Z,68.64
2023-03-05T06:28:45.161Z,68.54
2023-03-05T06:31:16.118Z,68.43
2023-03-05T06:33:44.309Z,67.87
2023-03-05T06:36:14.646Z,67.53
2023-03-05T06:38:42.920Z,67.61
2023-03-05T06:41:16.327Z,67.97
2023-03-05T06:43:46.284Z,67.84
2023-03-05T06:46:20.082Z,67.20
2023-03-05T06:48:48.212Z,67.51
2023-03-05T06:51:25.246Z,67.68
2023-03-05T06:53:53.648Z,66.91
2023-03-05T06:56:22.403Z,67.31
2023-03-05T06:58:51.386Z,67.32
2023-03-05T07:01:20.595Z,67.23
2023-03-05T07:03:53.167Z,67.53
2023-03-05T07:06:21.896Z,67.29
2023-03-05T07:08:50.236Z,67.15
2023-03-05T07:11:20.382Z,67.83
2023-03-05T07:13:48.872Z,67.16
2023-03-05T07:16:19.545Z,67.90
2023-03-05T07:18:47.713Z,67.28
2023-03-05T07:21:17.973Z,66.70
2023-03-05T07:23:46.439Z,66.17
2023-03-05T07:26:14.765Z,67.25
2023-03-05T07:28:42.306Z,68.01
2023-03-05T07:31:19.348Z,67.19
2023-03-05T07:33:50.718Z,67.23
2023-03-05T07:36:18.959Z,67.84
2023-03-05T07:38:46.774Z,67.51
2023-03-05T07:41:20.071Z,67.27
2023-03-05T07:43:53.624Z,67.21
2023-03-05T07:46:24.287Z,67.61
2023-03-05T07:48:54.646Z,66.67
2023-03-05T07:51:24.278Z,66.57
2023-03-05T07:53:53.965Z,66.64
2023-03-05T07:56:32.078Z,66.43
2023-03-05T07:59:01.361Z,65.18
2023-03-05T08:01:30.036Z,63.60
2023-03-05T08:03:58.204Z,63.95
2023-03-05T08:06:25.839Z,62.58
2023-03-05T08:08:53.441Z,61.75
2023-03-05T08:11:22.126Z,61.20
2023-03-05T08:13:49.694Z,60.37
2023-03-05T08:16:20.187Z,78.71
2023-03-05T08:18:48.501Z,73.17
2023-03-05T08:21:21.760Z,56.70
2023-03-05T08:23:49.747Z,54.98
2023-03-05T08:26:20.773Z,55.49
2023-03-05T08:28:49.113Z,55.99
2023-03-05T08:31:20.043Z,56.01
2023-03-05T08:33:48.997Z,55.60
2023-03-05T08:36:16.987Z,56.03
2023-03-05T08:38:46.739Z,56.63
2023-03-05T08:41:16.606Z,56.55
2023-03-05T08:43:44.849Z,55.93
2023-03-05T08:46:13.607Z,55.99
2023-03-05T08:48:41.232Z,55.87
2023-03-05T08:51:12.788Z,55.69
2023-03-05T08:53:42.792Z,55.54
2023-03-05T08:56:10.851Z,54.65
2023-03-05T08:58:38.523Z,55.11
2023-03-05T09:01:06.771Z,54.59
2023-03-05T09:03:35.028Z,55.25
2023-03-05T09:06:05.024Z,55.05
2023-03-05T09:08:33.099Z,55.82
2023-03-05T09:11:06.159Z,55.32
2023-03-05T09:13:33.951Z,55.25
2023-03-05T09:16:05.709Z,55.37
2023-03-05T09:18:36.680Z,55.45
2023-03-05T09:21:06.506Z,53.79
2023-03-05T09:23:34.101Z,55.21
2023-03-05T09:26:02.428Z,54.56
2023-03-05T09:28:30.265Z,53.71
2023-03-05T09:30:57.768Z,52.97
2023-03-05T09:33:25.254Z,52.91
2023-03-05T09:35:53.107Z,53.52
2023-03-05T09:38:21.366Z,54.07
2023-03-05T09:41:03.647Z,53.11
2023-03-05T09:43:55.229Z,53.10
2023-03-05T09:46:36.544Z,53.11
2023-03-05T09:49:14.577Z,52.75
2023-03-05T09:51:46.525Z,52.65
2023-03-05T09:54:25.021Z,52.73
2023-03-05T09:57:00.426Z,53.04
2023-03-05T09:59:47.671Z,53.19
2023-03-05T10:02:30.466Z,53.43
2023-03-05T10:05:03.131Z,52.14
2023-03-05T10:07:33.764Z,51.11
2023-03-05T10:10:14.353Z,51.44
2023-03-05T10:12:50.312Z,49.38
2023-03-05T10:15:31.915Z,49.68
2023-03-05T10:18:00.051Z,48.37
2023-03-05T10:20:33.869Z,47.36
2023-03-05T10:23:24.865Z,48.27
2023-03-05T10:25:55.541Z,48.21
2023-03-05T10:28:54.026Z,48.36
2023-03-05T10:31:25.041Z,46.03
2023-03-05T10:34:12.357Z,45.69
2023-03-05T10:37:10.932Z,47.16
2023-03-05T10:39:58.583Z,46.09
2023-03-05T10:42:46.637Z,45.86
2023-03-05T10:45:29.456Z,46.56
2023-03-05T10:48:09.445Z,46.37
2023-03-05T10:50:47.006Z,47.19
2023-03-05T10:53:27.746Z,46.09
2023-03-05T10:55:57.880Z,45.77
2023-03-05T10:58:27.588Z,45.29
2023-03-05T11:00:59.898Z,43.27
2023-03-05T11:03:51.108Z,43.82
2023-03-05T11:06:33.701Z,42.65
2023-03-05T11:09:20.490Z,42.56
2023-03-05T11:12:06.618Z,43.24
2023-03-05T11:14:38.790Z,44.10
2023-03-05T11:17:34.393Z,44.49
2023-03-05T11:20:26.790Z,44.05
2023-03-05T11:23:23.652Z,44.66
2023-03-05T11:25:59.028Z,45.76
2023-03-05T11:28:35.633Z,44.75
2023-03-05T11:31:15.611Z,45.17
2023-03-05T11:34:04.199Z,44.44
2023-03-05T11:36:59.023Z,45.51
2023-03-05T11:39:27.409Z,45.39
2023-03-05T11:41:59.669Z,44.89
2023-03-05T11:44:34.335Z,45.13
2023-03-05T11:47:19.839Z,45.05
2023-03-05T11:49:50.492Z,46.11
2023-03-05T11:52:33.411Z,45.23
2023-03-05T11:55:46.928Z,46.35
2023-03-05T11:58:36.365Z,45.34
2023-03-05T12:01:11.300Z,45.43
2023-03-05T12:03:39.319Z,46.00
2023-03-05T12:06:37.694Z,46.54
2023-03-05T12:09:30.229Z,46.26
2023-03-05T12:12:20.140Z,45.73
2023-03-05T12:15:03.710Z,44.17
2023-03-05T12:18:00.693Z,45.64
2023-03-05T12:20:44.306Z,46.50
2023-03-05T12:23:20.145Z,46.69
2023-03-05T12:25:53.502Z,47.10
2023-03-05T12:28:41.754Z,47.36
2023-03-05T12:31:09.611Z,46.70
2023-03-05T12:33:40.129Z,45.32
2023-03-05T12:36:19.738Z,46.73
2023-03-05T12:38:52.515Z,46.05
2023-03-05T12:41:23.078Z,47.49
2023-03-05T12:44:06.062Z,46.77
2023-03-05T12:46:35.584Z,44.84
2023-03-05T12:49:28.408Z,43.68
2023-03-05T12:51:59.183Z,44.59
2023-03-05T12:54:31.397Z,44.74
2023-03-05T12:57:07.145Z,43.23
2023-03-05T12:59:45.331Z,44.27
2023-03-05T13:02:33.840Z,44.49
2023-03-05T13:05:08.576Z,45.01
2023-03-05T13:07:36.662Z,43.56
2023-03-05T13:10:04.756Z,43.14
2023-03-05T13:12:32.575Z,42.62
2023-03-05T13:15:06.023Z,42.30
2023-03-05T13:17:44.440Z,42.91
2023-03-05T13:20:37.661Z,42.26
2023-03-05T13:23:18.433Z,42.80
2023-03-05T13:26:18.700Z,45.17
2023-03-05T13:29:05.128Z,46.22
2023-03-05T13:31:35.463Z,46.06
2023-03-05T13:34:17.201Z,46.34
2023-03-05T13:36:54.699Z,46.18
2023-03-05T13:39:27.464Z,45.50
2023-03-05T13:42:06.146Z,45.47
2023-03-05T13:44:35.041Z,44.24
2023-03-05T13:47:08.639Z,45.57
2023-03-05T13:49:36.573Z,45.18
2023-03-05T13:52:04.418Z,44.22
2023-03-05T13:54:32.242Z,44.09
2023-03-05T13:57:05.944Z,44.66
2023-03-05T13:59:36.522Z,45.17
2023-03-05T14:02:17.018Z,44.43
2023-03-05T14:04:47.425Z,44.38
2023-03-05T14:07:21.132Z,43.76
2023-03-05T14:09:52.006Z,42.85
2023-03-05T14:12:22.200Z,43.56
2023-03-05T14:14:50.437Z,44.41
2023-03-05T14:17:23.430Z,45.12
2023-03-05T14:19:52.183Z,44.56
2023-03-05T14:22:36.799Z,44.69
2023-03-05T14:25:07.085Z,44.65
2023-03-05T14:27:36.673Z,44.46
2023-03-05T14:30:06.312Z,44.03
2023-03-05T14:32:36.523Z,45.79
2023-03-05T14:35:06.290Z,46.79
2023-03-05T14:37:42.266Z,46.83
2023-03-05T14:40:10.050Z,47.13
2023-03-05T14:43:04.723Z,47.71
2023-03-05T14:45:39.545Z,47.52
2023-03-05T14:48:08.597Z,47.94
2023-03-05T14:50:51.748Z,49.36
2023-03-05T14:53:22.964Z,48.85
2023-03-05T14:55:56.670Z,49.12
2023-03-05T14:58:27.579Z,49.18
2023-03-05T15:00:56.880Z,49.87
2023-03-05T15:03:25.630Z,50.58
2023-03-05T15:05:56.748Z,50.74
2023-03-05T15:08:28.346Z,50.74
2023-03-05T15:10:56.333Z,50.86
2023-03-05T15:13:24.274Z,50.90
2023-03-05T15:15:52.795Z,51.00
2023-03-05T15:18:22.708Z,51.27
2023-03-05T15:20:54.880Z,51.59
2023-03-05T15:23:22.798Z,51.83
2023-03-05T15:25:50.767Z,51.45
2023-03-05T15:28:18.301Z,52.14
2023-03-05T15:30:47.665Z,52.80
2023-03-05T15:33:17.348Z,52.39
2023-03-05T15:35:45.117Z,52.36
2023-03-05T15:38:12.779Z,52.51
2023-03-05T15:40:44.250Z,52.23
2023-03-05T15:43:11.999Z,52.61
2023-03-05T15:45:39.908Z,52.58
2023-03-05T15:48:07.517Z,52.84
2023-03-05T15:50:35.082Z,53.14
2023-03-05T15:53:02.913Z,53.19
2023-03-05T15:55:30.361Z,53.23
2023-03-05T15:57:57.883Z,53.04
2023-03-05T16:00:30.484Z,52.83
2023-03-05T16:02:58.658Z,53.35
2023-03-05T16:05:26.462Z,53.15
2023-03-05T16:07:54.929Z,53.66
2023-03-05T16:10:26.770Z,53.78
2023-03-05T16:13:10.202Z,54.29
2023-03-05T16:15:40.925Z,54.21
2023-03-05T16:18:12.617Z,54.24
2023-03-05T16:20:40.531Z,54.16
2023-03-05T16:23:08.184Z,54.14
2023-03-05T16:25:36.828Z,54.20
2023-03-05T16:28:04.889Z,54.35
2023-03-05T16:30:33.204Z,54.39
2023-03-05T16:33:00.828Z,54.58
2023-03-05T16:35:29.098Z,54.73
2023-03-05T16:37:56.646Z,54.57
2023-03-05T16:40:25.852Z,54.79
2023-03-05T16:42:53.799Z,54.94
2023-03-05T16:45:21.341Z,56.07
2023-03-05T16:47:48.849Z,55.20
2023-03-05T16:50:16.738Z,55.32
2023-03-05T16:52:44.941Z,55.51
2023-03-05T16:55:12.680Z,55.46
2023-03-05T16:57:41.090Z,55.09
2023-03-05T17:00:10.834Z,55.56
2023-03-05T17:02:38.358Z,55.68
2023-03-05T17:05:06.533Z,55.63
2023-03-05T17:07:34.001Z,55.88
2023-03-05T17:10:01.506Z,56.25
2023-03-05T17:12:29.325Z,56.36
2023-03-05T17:14:56.792Z,56.33
2023-03-05T17:17:24.323Z,56.47
2023-03-05T17:19:52.111Z,56.80
2023-03-05T17:22:19.609Z,57.23
2023-03-05T17:24:48.118Z,56.82
2023-03-05T17:27:18.850Z,57.08
2023-03-05T17:29:46.697Z,58.89
2023-03-05T17:32:14.316Z,58.09
2023-03-05T17:34:43.439Z,57.75
2023-03-05T17:37:11.328Z,57.48
2023-03-05T17:39:39.504Z,57.30
2023-03-05T17:42:08.959Z,57.27
2023-03-05T17:44:36.714Z,58.03
2023-03-05T17:47:04.367Z,59.62
2023-03-05T17:49:31.839Z,60.20
2023-03-05T17:51:59.695Z,59.31
2023-03-05T17:54:27.309Z,59.01
2023-03-05T17:56:58.281Z,59.64
2023-03-05T17:59:26.566Z,59.19
2023-03-05T18:01:54.637Z,59.79
2023-03-05T18:04:22.545Z,60.12
2023-03-05T18:06:50.129Z,59.37
2023-03-05T18:09:17.694Z,60.20
2023-03-05T18:11:45.609Z,60.55
2023-03-05T18:14:15.153Z,60.87
2023-03-05T18:16:44.074Z,61.77
2023-03-05T18:19:11.938Z,59.91
2023-03-05T18:21:41.146Z,60.55
2023-03-05T18:24:09.549Z,60.60
2023-03-05T18:26:37.375Z,62.18
2023-03-05T18:29:04.914Z,61.85
2023-03-05T18:31:32.369Z,60.08
2023-03-05T18:34:00.154Z,61.13
2023-03-05T18:36:27.609Z,60.53
2023-03-05T18:38:55.106Z,60.82
2023-03-05T18:41:27.653Z,60.44
2023-03-05T18:43:55.487Z,61.67
2023-03-05T18:46:23.741Z,62.61
2023-03-05T18:48:51.247Z,63.11
2023-03-05T18:51:21.654Z,63.17
2023-03-05T18:53:51.923Z,64.50
2023-03-05T18:56:19.448Z,62.22
2023-03-05T18:58:47.744Z,60.46
2023-03-05T19:01:17.663Z,60.22
2023-03-05T19:03:46.390Z,60.27
2023-03-05T19:06:13.846Z,61.21
2023-03-05T19:08:42.021Z,61.74
2023-03-05T19:11:21.015Z,61.75
2023-03-05T19:13:50.559Z,61.52
2023-03-05T19:16:21.206Z,60.48
2023-03-05T19:19:22.604Z,60.68
2023-03-05T19:21:56.373Z,64.06
2023-03-05T19:24:26.350Z,65.83
2023-03-05T19:26:56.091Z,64.98
2023-03-05T19:29:25.529Z,65.05
2023-03-05T19:31:54.522Z,65.66
2023-03-05T19:34:21.969Z,65.88
2023-03-05T19:36:50.081Z,65.45
2023-03-05T19:39:17.639Z,66.93
2023-03-05T19:41:45.261Z,66.46
2023-03-05T19:44:13.386Z,63.97
2023-03-05T19:46:42.015Z,64.31
2023-03-05T19:49:10.354Z,64.67
2023-03-05T19:51:40.771Z,65.59
2023-03-05T19:54:09.621Z,66.67
2023-03-05T19:56:38.905Z,66.46
2023-03-05T19:59:07.553Z,64.63
2023-03-05T20:01:35.555Z,65.29
2023-03-05T20:04:05.181Z,66.00
2023-03-05T20:06:33.447Z,66.40
2023-03-05T20:09:01.240Z,66.90
2023-03-05T20:11:29.382Z,65.57
2023-03-05T20:13:57.303Z,64.35
2023-03-05T20:16:30.594Z,65.02
2023-03-05T20:18:59.874Z,65.86
2023-03-05T20:21:34.686Z,66.76
2023-03-05T20:24:07.324Z,65.43
2023-03-05T20:26:38.566Z,67.54
2023-03-05T20:29:07.052Z,67.12
2023-03-05T20:31:37.382Z,66.51
2023-03-05T20:34:11.639Z,67.34
2023-03-05T20:36:40.169Z,68.06
2023-03-05T20:39:08.212Z,67.77
2023-03-05T20:41:37.886Z,67.40
2023-03-05T20:44:06.912Z,69.65
2023-03-05T20:47:03.725Z,66.59
2023-03-05T20:50:05.044Z,67.16
2023-03-05T20:52:32.867Z,68.11
2023-03-05T20:55:03.995Z,67.81
2023-03-05T20:57:31.755Z,66.91
2023-03-05T21:00:03.575Z,66.72
2023-03-05T21:02:31.243Z,68.00
2023-03-05T21:04:59.217Z,68.53
2023-03-05T21:07:29.410Z,68.05
2023-03-05T21:09:56.936Z,67.49
2023-03-05T21:12:24.735Z,67.66
2023-03-05T21:14:52.183Z,67.90
2023-03-05T21:17:19.750Z,69.24
2023-03-05T21:19:47.558Z,69.82
2023-03-05T21:22:15.089Z,69.93
2023-03-05T21:25:14.721Z,69.21
2023-03-05T21:27:43.101Z,68.24
2023-03-05T21:30:11.403Z,68.41
2023-03-05T21:32:38.989Z,67.71
2023-03-05T21:35:07.363Z,68.57
2023-03-05T21:37:42.289Z,69.21
2023-03-05T21:40:16.014Z,69.87
2023-03-05T21:42:47.054Z,70.12
2023-03-05T21:45:18.543Z,70.47
2023-03-05T21:47:46.370Z,69.58
2023-03-05T21:50:16.199Z,69.80
2023-03-05T21:52:43.988Z,69.62
2023-03-05T21:55:14.257Z,69.84
2023-03-05T21:57:42.130Z,70.26
2023-03-05T22:00:12.758Z,70.49
2023-03-05T22:02:42.070Z,69.92
2023-03-05T22:05:13.106Z,69.89
2023-03-05T22:07:41.091Z,69.67
2023-03-05T22:10:16.343Z,69.62
2023-03-05T22:13:25.438Z,69.40
2023-03-05T22:15:57.611Z,69.69
2023-03-05T22:18:30.800Z,69.93
2023-03-05T22:21:03.624Z,69.67
2023-03-05T22:23:34.593Z,69.52
2023-03-05T22:26:05.268Z,68.85
2023-03-05T22:28:34.116Z,70.23
2023-03-05T22:31:02.017Z,70.45
2023-03-05T22:33:29.840Z,70.64
2023-03-05T22:35:58.322Z,70.40
2023-03-05T22:38:26.330Z,69.88
2023-03-05T22:40:53.825Z,69.48
2023-03-05T22:43:21.641Z,69.22
2023-03-05T22:45:49.540Z,69.14
2023-03-05T22:48:17.111Z,69.54
2023-03-05T22:50:44.942Z,69.79
2023-03-05T22:53:12.570Z,69.59
2023-03-05T22:55:41.481Z,69.65
2023-03-05T22:58:09.790Z,70.13
2023-03-05T23:00:37.354Z,70.33
2023-03-05T23:03:06.540Z,70.39
2023-03-05T23:05:35.568Z,70.22
2023-03-05T23:08:03.056Z,70.32
2023-03-05T23:10:30.531Z,70.54
2023-03-05T23:13:00.970Z,70.61
2023-03-05T23:15:31.641Z,71.37
2023-03-05T23:17:59.708Z,71.86
2023-03-05T23:20:30.046Z,71.84
2023-03-05T23:22:58.013Z,71.66
2023-03-05T23:25:29.358Z,71.63
2023-03-05T23:28:00.580Z,71.50
2023-03-05T23:30:33.767Z,71.36
2023-03-05T23:33:07.704Z,71.29
2023-03-05T23:35:41.606Z,71.14
2023-03-05T23:38:13.076Z,71.23
2023-03-05T23:40:43.766Z,71.38
2023-03-05T23:43:12.331Z,71.64
2023-03-05T23:45:44.428Z,71.66
2023-03-05T23:48:12.288Z,71.62
2023-03-05T23:50:43.354Z,71.81
2023-03-05T23:53:10.901Z,71.85
2023-03-05T23:55:44.208Z,71.80
2023-03-05T23:58:12.224Z,71.49
